sensor_id;sensor_type;location;lat;lon;timestamp;pressure;altitude;pressure_sealevel;temperature;humidity
69221;BME280;56331;51.992;20.910;2022-12-22T00:02:24;99714.20;;;21.94;41.74
69221;BME280;56331;51.992;20.910;2022-12-22T00:05:18;99723.91;;;21.94;41.82
69221;BME280;56331;51.992;20.910;2022-12-22T00:08:04;99723.91;;;21.94;41.64
69221;BME280;56331;51.992;20.910;2022-12-22T00:10:49;99710.63;;;21.94;41.71
69221;BME280;56331;51.992;20.910;2022-12-22T00:13:35;99712.02;;;21.94;41.67
69221;BME280;56331;51.992;20.910;2022-12-22T00:16:20;99710.63;;;21.94;41.65
69221;BME280;56331;51.992;20.910;2022-12-22T00:19:11;99712.60;;;21.93;41.64
69221;BME280;56331;51.992;20.910;2022-12-22T00:22:00;99716.77;;;21.93;41.68
69221;BME280;56331;51.992;20.910;2022-12-22T00:24:45;99718.95;;;21.94;41.64
69221;BME280;56331;51.992;20.910;2022-12-22T00:27:30;99715.59;;;21.94;41.62
69221;BME280;56331;51.992;20.910;2022-12-22T00:30:16;99711.80;;;21.93;41.62
69221;BME280;56331;51.992;20.910;2022-12-22T00:33:03;99714.78;;;21.94;41.52
69221;BME280;56331;51.992;20.910;2022-12-22T00:35:49;99716.77;;;21.93;41.59
69221;BME280;56331;51.992;20.910;2022-12-22T00:38:34;99717.11;;;21.92;41.49
69221;BME280;56331;51.992;20.910;2022-12-22T00:41:19;99713.53;;;21.91;41.43
69221;BME280;56331;51.992;20.910;2022-12-22T00:44:04;99719.08;;;21.91;41.37
69221;BME280;56331;51.992;20.910;2022-12-22T00:46:49;99713.53;;;21.91;41.43
69221;BME280;56331;51.992;20.910;2022-12-22T00:49:34;99709.16;;;21.90;41.51
69221;BME280;56331;51.992;20.910;2022-12-22T00:52:21;99709.38;;;21.91;41.43
69221;BME280;56331;51.992;20.910;2022-12-22T00:55:14;99706.95;;;21.90;41.43
69221;BME280;56331;51.992;20.910;2022-12-22T00:58:01;99705.00;;;21.90;41.34
69221;BME280;56331;51.992;20.910;2022-12-22T01:00:46;99699.45;;;21.90;41.33
69221;BME280;56331;51.992;20.910;2022-12-22T01:03:31;99706.95;;;21.90;41.32
69221;BME280;56331;51.992;20.910;2022-12-22T01:06:16;99703.61;;;21.90;41.27
69221;BME280;56331;51.992;20.910;2022-12-22T01:09:01;99711.94;;;21.90;41.29
69221;BME280;56331;51.992;20.910;2022-12-22T01:11:46;99704.17;;;21.90;41.23
69221;BME280;56331;51.992;20.910;2022-12-22T01:14:30;99706.39;;;21.90;41.23
69221;BME280;56331;51.992;20.910;2022-12-22T01:17:15;99702.57;;;21.89;41.25
69221;BME280;56331;51.992;20.910;2022-12-22T01:20:00;99700.59;;;21.89;41.24
69221;BME280;56331;51.992;20.910;2022-12-22T01:22:45;99704.76;;;21.89;41.27
69221;BME280;56331;51.992;20.910;2022-12-22T01:25:30;99706.73;;;21.89;41.08
69221;BME280;56331;51.992;20.910;2022-12-22T01:28:15;99705.34;;;21.89;41.06
69221;BME280;56331;51.992;20.910;2022-12-22T01:31:16;99699.80;;;21.89;40.93
69221;BME280;56331;51.992;20.910;2022-12-22T01:34:01;99703.16;;;21.88;41.00
69221;BME280;56331;51.992;20.910;2022-12-22T01:36:51;99695.42;;;21.88;41.01
69221;BME280;56331;51.992;20.910;2022-12-22T01:39:36;99693.45;;;21.88;40.98
69221;BME280;56331;51.992;20.910;2022-12-22T01:42:21;99696.44;;;21.89;40.98
69221;BME280;56331;51.992;20.910;2022-12-22T01:45:17;99697.23;;;21.90;40.93
69221;BME280;56331;51.992;20.910;2022-12-22T01:47:57;99702.36;;;21.88;40.91
69221;BME280;56331;51.992;20.910;2022-12-22T01:50:42;99707.32;;;21.88;40.88
69221;BME280;56331;51.992;20.910;2022-12-22T01:53:27;99705.13;;;21.88;41.05
69221;BME280;56331;51.992;20.910;2022-12-22T01:56:13;99698.76;;;21.87;40.85
69221;BME280;56331;51.992;20.910;2022-12-22T01:58:59;99695.42;;;21.88;40.81
69221;BME280;56331;51.992;20.910;2022-12-22T02:01:45;99684.89;;;21.87;40.80
69221;BME280;56331;51.992;20.910;2022-12-22T02:04:35;99683.75;;;21.88;40.86
69221;BME280;56331;51.992;20.910;2022-12-22T02:10:24;99691.61;;;21.86;40.60
69221;BME280;56331;51.992;20.910;2022-12-22T02:13:24;99688.25;;;21.87;40.66
69221;BME280;56331;51.992;20.910;2022-12-22T02:22:18;99684.68;;;21.86;40.55
69221;BME280;56331;51.992;20.910;2022-12-22T02:25:04;99681.91;;;21.86;40.60
69221;BME280;56331;51.992;20.910;2022-12-22T02:27:50;99681.11;;;21.85;40.53
69221;BME280;56331;51.992;20.910;2022-12-22T02:30:37;99681.91;;;21.86;40.61
69221;BME280;56331;51.992;20.910;2022-12-22T02:33:24;99676.95;;;21.85;40.49
69221;BME280;56331;51.992;20.910;2022-12-22T02:36:26;99680.52;;;21.86;40.58
69221;BME280;56331;51.992;20.910;2022-12-22T02:48:19;99683.22;;;21.82;40.40
69221;BME280;56331;51.992;20.910;2022-12-22T02:51:10;99675.70;;;21.83;40.40
69221;BME280;56331;51.992;20.910;2022-12-22T02:53:57;99684.59;;;21.82;40.42
69221;BME280;56331;51.992;20.910;2022-12-22T02:56:43;99689.56;;;21.83;40.44
69221;BME280;56331;51.992;20.910;2022-12-22T02:59:28;99691.53;;;21.82;40.30
69221;BME280;56331;51.992;20.910;2022-12-22T03:02:13;99700.06;;;21.83;40.31
69221;BME280;56331;51.992;20.910;2022-12-22T03:04:58;99694.52;;;21.83;40.13
69221;BME280;56331;51.992;20.910;2022-12-22T03:07:44;99690.02;;;21.85;39.54
69221;BME280;56331;51.992;20.910;2022-12-22T03:10:29;99694.73;;;21.84;39.30
69221;BME280;56331;51.992;20.910;2022-12-22T03:13:14;99690.02;;;21.85;39.14
69221;BME280;56331;51.992;20.910;2022-12-22T03:15:59;99696.95;;;21.85;38.96
69221;BME280;56331;51.992;20.910;2022-12-22T03:18:43;99699.13;;;21.85;38.76
69221;BME280;56331;51.992;20.910;2022-12-22T03:21:29;99695.19;;;21.87;38.65
69221;BME280;56331;51.992;20.910;2022-12-22T03:24:14;99692.20;;;21.85;38.48
69221;BME280;56331;51.992;20.910;2022-12-22T03:26:58;99688.63;;;21.85;38.42
69221;BME280;56331;51.992;20.910;2022-12-22T03:29:25;99679.14;;;21.86;38.27
69221;BME280;56331;51.992;20.910;2022-12-22T03:31:51;99681.11;;;21.85;38.13
69221;BME280;56331;51.992;20.910;2022-12-22T03:34:18;99689.64;;;21.87;38.07
69221;BME280;56331;51.992;20.910;2022-12-22T03:36:44;99681.11;;;21.85;37.96
69221;BME280;56331;51.992;20.910;2022-12-22T03:39:11;99679.14;;;21.86;37.88
69221;BME280;56331;51.992;20.910;2022-12-22T03:41:37;99670.23;;;21.87;37.82
69221;BME280;56331;51.992;20.910;2022-12-22T03:44:22;99666.87;;;21.87;37.73
69221;BME280;56331;51.992;20.910;2022-12-22T03:47:07;99661.11;;;21.86;37.64
69221;BME280;56331;51.992;20.910;2022-12-22T03:49:34;99668.63;;;21.85;37.55
69221;BME280;56331;51.992;20.910;2022-12-22T03:52:00;99668.63;;;21.85;37.42
69221;BME280;56331;51.992;20.910;2022-12-22T03:54:27;99677.16;;;21.87;37.36
69221;BME280;56331;51.992;20.910;2022-12-22T03:56:53;99667.24;;;21.85;37.28
69221;BME280;56331;51.992;20.910;2022-12-22T03:59:20;99668.84;;;21.87;37.25
69221;BME280;56331;51.992;20.910;2022-12-22T04:01:49;99658.92;;;21.85;37.19
69221;BME280;56331;51.992;20.910;2022-12-22T04:04:18;99664.47;;;21.85;37.13
69221;BME280;56331;51.992;20.910;2022-12-22T04:06:46;99660.07;;;21.84;37.64
69221;BME280;56331;51.992;20.910;2022-12-22T04:09:12;99656.88;;;21.82;37.74
69221;BME280;56331;51.992;20.910;2022-12-22T04:11:39;99662.98;;;21.82;37.76
69221;BME280;56331;51.992;20.910;2022-12-22T04:14:24;99661.38;;;21.81;37.81
69221;BME280;56331;51.992;20.910;2022-12-22T04:16:51;99664.15;;;21.81;37.83
69221;BME280;56331;51.992;20.910;2022-12-22T04:19:17;99661.72;;;21.79;37.90
69221;BME280;56331;51.992;20.910;2022-12-22T04:21:44;99659.78;;;21.80;37.85
69221;BME280;56331;51.992;20.910;2022-12-22T04:24:11;99657.01;;;21.80;37.92
69221;BME280;56331;51.992;20.910;2022-12-22T04:26:38;99652.02;;;21.79;37.83
69221;BME280;56331;51.992;20.910;2022-12-22T04:29:05;99655.63;;;21.80;37.83
69221;BME280;56331;51.992;20.910;2022-12-22T04:31:31;99658.95;;;21.79;37.83
69221;BME280;56331;51.992;20.910;2022-12-22T04:33:58;99655.38;;;21.79;37.89
69221;BME280;56331;51.992;20.910;2022-12-22T04:36:24;99652.39;;;21.78;37.85
69221;BME280;56331;51.992;20.910;2022-12-22T04:38:51;99664.07;;;21.77;37.93
69221;BME280;56331;51.992;20.910;2022-12-22T04:41:17;99661.51;;;21.78;37.85
69221;BME280;56331;51.992;20.910;2022-12-22T04:43:44;99659.11;;;21.77;37.83
69221;BME280;56331;51.992;20.910;2022-12-22T04:46:10;99657.94;;;21.78;37.86
69221;BME280;56331;51.992;20.910;2022-12-22T04:48:37;99646.84;;;21.78;37.86
69221;BME280;56331;51.992;20.910;2022-12-22T04:51:04;99648.82;;;21.77;37.83
69221;BME280;56331;51.992;20.910;2022-12-22T04:53:31;99643.27;;;21.77;37.91
69221;BME280;56331;51.992;20.910;2022-12-22T04:56:05;99635.55;;;21.77;37.87
69221;BME280;56331;51.992;20.910;2022-12-22T04:58:28;99630.00;;;21.77;37.80
69221;BME280;56331;51.992;20.910;2022-12-22T05:00:54;99637.48;;;21.76;37.81
69221;BME280;56331;51.992;20.910;2022-12-22T05:03:22;99635.55;;;21.77;37.84
69221;BME280;56331;51.992;20.910;2022-12-22T05:05:49;99632.77;;;21.77;37.87
69221;BME280;56331;51.992;20.910;2022-12-22T05:08:15;99628.62;;;21.77;37.88
69221;BME280;56331;51.992;20.910;2022-12-22T05:10:42;99625.02;;;21.76;37.87
69221;BME280;56331;51.992;20.910;2022-12-22T05:13:09;99615.89;;;21.76;37.91
69221;BME280;56331;51.992;20.910;2022-12-22T05:15:35;99614.89;;;21.74;37.93
69221;BME280;56331;51.992;20.910;2022-12-22T05:18:03;99623.62;;;21.76;37.93
69221;BME280;56331;51.992;20.910;2022-12-22T05:20:30;99624.22;;;21.76;37.92
69221;BME280;56331;51.992;20.910;2022-12-22T05:22:56;99621.09;;;21.77;37.88
69221;BME280;56331;51.992;20.910;2022-12-22T05:25:23;99615.89;;;21.76;38.00
69221;BME280;56331;51.992;20.910;2022-12-22T05:27:50;99617.28;;;21.76;37.95
69221;BME280;56331;51.992;20.910;2022-12-22T05:30:17;99618.67;;;21.76;38.01
69221;BME280;56331;51.992;20.910;2022-12-22T05:32:45;99619.84;;;21.75;38.04
69221;BME280;56331;51.992;20.910;2022-12-22T05:35:11;99617.66;;;21.74;37.96
69221;BME280;56331;51.992;20.910;2022-12-22T05:37:39;99625.39;;;21.75;37.97
69221;BME280;56331;51.992;20.910;2022-12-22T05:40:06;99626.77;;;21.75;38.00
69221;BME280;56331;51.992;20.910;2022-12-22T05:42:33;99632.32;;;21.75;38.00
69221;BME280;56331;51.992;20.910;2022-12-22T05:47:41;99627.92;;;21.74;37.98
69221;BME280;56331;51.992;20.910;2022-12-22T05:50:08;99630.69;;;21.74;38.01
69221;BME280;56331;51.992;20.910;2022-12-22T05:52:36;99627.92;;;21.74;38.00
69221;BME280;56331;51.992;20.910;2022-12-22T05:55:03;99635.89;;;21.75;38.05
69221;BME280;56331;51.992;20.910;2022-12-22T05:57:31;99635.68;;;21.74;38.00
69221;BME280;56331;51.992;20.910;2022-12-22T05:59:59;99632.66;;;21.73;37.94
69221;BME280;56331;51.992;20.910;2022-12-22T06:02:26;99633.46;;;21.74;37.99
69221;BME280;56331;51.992;20.910;2022-12-22T06:04:53;99639.59;;;21.73;37.75
69221;BME280;56331;51.992;20.910;2022-12-22T06:07:19;99636.23;;;21.74;37.48
69221;BME280;56331;51.992;20.910;2022-12-22T06:09:46;99640.39;;;21.74;37.35
69221;BME280;56331;51.992;20.910;2022-12-22T06:12:13;99642.83;;;21.75;37.22
69221;BME280;56331;51.992;20.910;2022-12-22T06:14:39;99643.03;;;21.76;37.11
69221;BME280;56331;51.992;20.910;2022-12-22T06:17:06;99642.23;;;21.76;37.00
69221;BME280;56331;51.992;20.910;2022-12-22T06:19:33;99642.23;;;21.76;36.93
69221;BME280;56331;51.992;20.910;2022-12-22T06:21:59;99636.94;;;21.77;36.83
69221;BME280;56331;51.992;20.910;2022-12-22T06:24:26;99637.73;;;21.77;36.78
69221;BME280;56331;51.992;20.910;2022-12-22T06:27:01;99638.88;;;21.76;36.65
69221;BME280;56331;51.992;20.910;2022-12-22T06:29:29;99642.23;;;21.76;36.54
69221;BME280;56331;51.992;20.910;2022-12-22T06:31:56;99650.80;;;21.77;36.51
69221;BME280;56331;51.992;20.910;2022-12-22T06:34:22;99647.44;;;21.77;36.42
69221;BME280;56331;51.992;20.910;2022-12-22T06:36:49;99644.66;;;21.77;36.40
69221;BME280;56331;51.992;20.910;2022-12-22T06:39:16;99641.89;;;21.77;36.42
69221;BME280;56331;51.992;20.910;2022-12-22T06:41:43;99644.08;;;21.78;36.47
69221;BME280;56331;51.992;20.910;2022-12-22T06:44:28;99642.48;;;21.77;36.50
69221;BME280;56331;51.992;20.910;2022-12-22T06:46:54;99640.27;;;21.76;36.57
69221;BME280;56331;51.992;20.910;2022-12-22T06:49:21;99651.59;;;21.77;36.58
69221;BME280;56331;51.992;20.910;2022-12-22T06:51:48;99654.95;;;21.77;36.48
69221;BME280;56331;51.992;20.910;2022-12-22T06:54:14;99656.55;;;21.78;36.48
69221;BME280;56331;51.992;20.910;2022-12-22T06:56:41;99652.02;;;21.79;36.37
69221;BME280;56331;51.992;20.910;2022-12-22T06:59:07;99651.80;;;21.78;36.37
69221;BME280;56331;51.992;20.910;2022-12-22T07:01:34;99662.31;;;21.79;36.45
69221;BME280;56331;51.992;20.910;2022-12-22T07:04:00;99657.56;;;21.79;36.80
69221;BME280;56331;51.992;20.910;2022-12-22T07:06:27;99645.67;;;21.79;36.73
69221;BME280;56331;51.992;20.910;2022-12-22T07:08:54;99650.20;;;21.77;36.26
69221;BME280;56331;51.992;20.910;2022-12-22T07:11:20;99642.10;;;21.78;36.10
69221;BME280;56331;51.992;20.910;2022-12-22T07:13:47;99638.74;;;21.79;35.97
69221;BME280;56331;51.992;20.910;2022-12-22T07:16:13;99635.97;;;21.79;35.81
69221;BME280;56331;51.992;20.910;2022-12-22T07:18:41;99637.36;;;21.79;35.64
69221;BME280;56331;51.992;20.910;2022-12-22T07:21:10;99628.45;;;21.79;35.56
69221;BME280;56331;51.992;20.910;2022-12-22T07:23:38;99624.08;;;21.78;35.47
69221;BME280;56331;51.992;20.910;2022-12-22T07:26:05;99624.30;;;21.79;35.40
69221;BME280;56331;51.992;20.910;2022-12-22T07:28:37;99628.45;;;21.79;35.28
69221;BME280;56331;51.992;20.910;2022-12-22T07:31:04;99634.23;;;21.80;35.20
69221;BME280;56331;51.992;20.910;2022-12-22T07:33:31;99635.84;;;21.81;35.98
69221;BME280;56331;51.992;20.910;2022-12-22T07:38:35;99624.16;;;21.82;37.59
69221;BME280;56331;51.992;20.910;2022-12-22T07:41:02;99632.13;;;21.83;37.88
69221;BME280;56331;51.992;20.910;2022-12-22T07:43:28;99633.52;;;21.83;37.97
69221;BME280;56331;51.992;20.910;2022-12-22T07:45:55;99634.31;;;21.84;37.93
69221;BME280;56331;51.992;20.910;2022-12-22T07:48:21;99640.53;;;21.87;37.85
69221;BME280;56331;51.992;20.910;2022-12-22T07:51:06;99633.25;;;21.89;37.81
69221;BME280;56331;51.992;20.910;2022-12-22T07:53:33;99623.20;;;21.90;37.73
69221;BME280;56331;51.992;20.910;2022-12-22T07:56:04;99621.09;;;21.93;37.82
69221;BME280;56331;51.992;20.910;2022-12-22T07:58:31;99619.19;;;21.97;37.77
69221;BME280;56331;51.992;20.910;2022-12-22T08:00:59;99612.50;;;21.98;37.71
69221;BME280;56331;51.992;20.910;2022-12-22T08:03:26;99613.37;;;22.02;37.64
69221;BME280;56331;51.992;20.910;2022-12-22T08:05:52;99610.11;;;22.06;37.44
69221;BME280;56331;51.992;20.910;2022-12-22T08:08:19;99599.68;;;22.10;37.48
69221;BME280;56331;51.992;20.910;2022-12-22T08:10:45;99596.98;;;22.13;37.63
69221;BME280;56331;51.992;20.910;2022-12-22T08:13:13;99604.61;;;22.16;37.78
69221;BME280;56331;51.992;20.910;2022-12-22T08:15:40;99603.91;;;22.19;37.92
69221;BME280;56331;51.992;20.910;2022-12-22T08:18:06;99606.75;;;22.23;37.89
69221;BME280;56331;51.992;20.910;2022-12-22T08:20:33;99606.99;;;22.24;37.77
69221;BME280;56331;51.992;20.910;2022-12-22T08:22:59;99610.56;;;22.24;37.70
69221;BME280;56331;51.992;20.910;2022-12-22T08:25:26;99605.47;;;22.26;37.54
69221;BME280;56331;51.992;20.910;2022-12-22T08:27:53;99600.13;;;22.27;37.42
69221;BME280;56331;51.992;20.910;2022-12-22T08:30:21;99586.46;;;22.28;37.53
69221;BME280;56331;51.992;20.910;2022-12-22T08:32:48;99587.50;;;22.30;37.47
69221;BME280;56331;51.992;20.910;2022-12-22T08:35:16;99580.22;;;22.32;37.39
69221;BME280;56331;51.992;20.910;2022-12-22T08:37:44;99583.20;;;22.33;37.28
69221;BME280;56331;51.992;20.910;2022-12-22T08:40:15;99585.38;;;22.33;37.17
69221;BME280;56331;51.992;20.910;2022-12-22T08:42:41;99587.81;;;22.35;37.04
69221;BME280;56331;51.992;20.910;2022-12-22T08:45:09;99574.14;;;22.36;36.90
69221;BME280;56331;51.992;20.910;2022-12-22T08:47:36;99585.09;;;22.38;36.78
69221;BME280;56331;51.992;20.910;2022-12-22T08:50:03;99598.17;;;22.38;36.72
69221;BME280;56331;51.992;20.910;2022-12-22T08:52:30;99580.34;;;22.39;36.64
69221;BME280;56331;51.992;20.910;2022-12-22T08:54:56;99579.55;;;22.38;36.64
69221;BME280;56331;51.992;20.910;2022-12-22T08:57:23;99583.36;;;22.40;36.59
69221;BME280;56331;51.992;20.910;2022-12-22T08:59:49;99568.89;;;22.40;36.62
69221;BME280;56331;51.992;20.910;2022-12-22T09:02:16;99573.65;;;22.40;36.63
69221;BME280;56331;51.992;20.910;2022-12-22T09:04:42;99567.51;;;22.40;36.63
69221;BME280;56331;51.992;20.910;2022-12-22T09:07:09;99576.63;;;22.41;36.68
69221;BME280;56331;51.992;20.910;2022-12-22T09:09:36;99571.88;;;22.41;37.04
69221;BME280;56331;51.992;20.910;2022-12-22T09:14:51;99574.89;;;22.42;37.29
69221;BME280;56331;51.992;20.910;2022-12-22T09:17:18;99578.23;;;22.42;37.37
69221;BME280;56331;51.992;20.910;2022-12-22T09:19:44;99576.49;;;22.43;37.42
69221;BME280;56331;51.992;20.910;2022-12-22T09:22:15;99568.97;;;22.44;37.49
69221;BME280;56331;51.992;20.910;2022-12-22T09:24:39;99562.83;;;22.44;37.54
69221;BME280;56331;51.992;20.910;2022-12-22T09:27:05;99560.28;;;22.45;37.66
69221;BME280;56331;51.992;20.910;2022-12-22T09:29:35;99554.94;;;22.46;37.64
69221;BME280;56331;51.992;20.910;2022-12-22T09:32:03;99555.53;;;22.46;37.64
69221;BME280;56331;51.992;20.910;2022-12-22T09:34:29;99552.76;;;22.46;37.68
69221;BME280;56331;51.992;20.910;2022-12-22T09:36:56;99544.08;;;22.47;37.65
69221;BME280;56331;51.992;20.910;2022-12-22T09:39:23;99541.86;;;22.47;37.43
69221;BME280;56331;51.992;20.910;2022-12-22T09:41:54;99537.00;;;22.50;37.01
69221;BME280;56331;51.992;20.910;2022-12-22T09:44:33;99546.71;;;22.50;36.66
69221;BME280;56331;51.992;20.910;2022-12-22T09:47:03;99544.94;;;22.52;36.43
69221;BME280;56331;51.992;20.910;2022-12-22T09:49:31;99533.04;;;22.51;36.27
69221;BME280;56331;51.992;20.910;2022-12-22T09:52:01;99532.45;;;22.52;36.36
69221;BME280;56331;51.992;20.910;2022-12-22T09:54:28;99523.53;;;22.52;36.45
69221;BME280;56331;51.992;20.910;2022-12-22T09:56:55;99515.45;;;22.53;36.50
69221;BME280;56331;51.992;20.910;2022-12-22T09:59:25;99515.66;;;22.54;36.54
69221;BME280;56331;51.992;20.910;2022-12-22T10:02:11;99512.87;;;22.54;36.42
69221;BME280;56331;51.992;20.910;2022-12-22T10:07:30;99499.09;;;22.58;36.38
69221;BME280;56331;51.992;20.910;2022-12-22T10:09:53;99495.12;;;22.59;36.66
69221;BME280;56331;51.992;20.910;2022-12-22T10:12:23;99492.36;;;22.59;36.76
69221;BME280;56331;51.992;20.910;2022-12-22T10:14:51;99493.16;;;22.59;36.83
69221;BME280;56331;51.992;20.910;2022-12-22T10:17:31;99489.22;;;22.60;36.85
69221;BME280;56331;51.992;20.910;2022-12-22T10:25:29;99479.72;;;22.61;36.54
69221;BME280;56331;51.992;20.910;2022-12-22T10:27:56;99479.12;;;22.62;36.46
69221;BME280;56331;51.992;20.910;2022-12-22T10:30:26;99477.14;;;22.62;36.39
69221;BME280;56331;51.992;20.910;2022-12-22T10:33:07;99471.59;;;22.62;36.27
69221;BME280;56331;51.992;20.910;2022-12-22T10:35:45;99465.45;;;22.63;36.32
69221;BME280;56331;51.992;20.910;2022-12-22T10:40:52;99459.10;;;22.62;36.64
69221;BME280;56331;51.992;20.910;2022-12-22T10:43:18;99448.80;;;22.63;36.85
69221;BME280;56331;51.992;20.910;2022-12-22T10:45:47;99444.81;;;22.60;37.08
69221;BME280;56331;51.992;20.910;2022-12-22T10:48:14;99436.09;;;22.62;37.21
69221;BME280;56331;51.992;20.910;2022-12-22T10:50:48;99430.39;;;22.64;37.43
69221;BME280;56331;51.992;20.910;2022-12-22T10:53:15;99435.59;;;22.66;37.59
69221;BME280;56331;51.992;20.910;2022-12-22T10:55:41;99432.81;;;22.66;37.78
69221;BME280;56331;51.992;20.910;2022-12-22T10:58:15;99423.30;;;22.67;37.94
69221;BME280;56331;51.992;20.910;2022-12-22T11:00:42;99415.77;;;22.67;38.04
69221;BME280;56331;51.992;20.910;2022-12-22T11:03:11;99414.03;;;22.69;38.13
69221;BME280;56331;51.992;20.910;2022-12-22T11:05:40;99406.30;;;22.68;38.14
69221;BME280;56331;51.992;20.910;2022-12-22T11:08:18;99411.84;;;22.68;38.23
69221;BME280;56331;51.992;20.910;2022-12-22T11:16:07;99399.99;;;22.71;38.66
69221;BME280;56331;51.992;20.910;2022-12-22T11:35:03;99385.96;;;22.74;39.21
69221;BME280;56331;51.992;20.910;2022-12-22T11:40:40;99373.91;;;22.76;39.38
69221;BME280;56331;51.992;20.910;2022-12-22T11:43:45;99380.25;;;22.77;39.51
69221;BME280;56331;51.992;20.910;2022-12-22T11:49:38;99373.16;;;22.79;39.59
69221;BME280;56331;51.992;20.910;2022-12-22T12:00:01;99389.02;;;22.79;39.21
69221;BME280;56331;51.992;20.910;2022-12-22T12:08:20;99370.58;;;22.80;38.57
69221;BME280;56331;51.992;20.910;2022-12-22T12:14:17;99361.10;;;22.81;38.03
69221;BME280;56331;51.992;20.910;2022-12-22T12:22:01;99365.27;;;22.81;38.01
69221;BME280;56331;51.992;20.910;2022-12-22T12:24:39;99352.53;;;22.80;37.96
69221;BME280;56331;51.992;20.910;2022-12-22T12:27:14;99350.35;;;22.80;37.90
69221;BME280;56331;51.992;20.910;2022-12-22T12:30:03;99342.02;;;22.80;37.78
69221;BME280;56331;51.992;20.910;2022-12-22T12:38:24;99338.89;;;22.81;37.38
69221;BME280;56331;51.992;20.910;2022-12-22T12:41:01;99334.48;;;22.80;37.22
69221;BME280;56331;51.992;20.910;2022-12-22T12:43:28;99328.14;;;22.80;37.16
69221;BME280;56331;51.992;20.910;2022-12-22T12:45:55;99325.36;;;22.80;37.13
69221;BME280;56331;51.992;20.910;2022-12-22T12:50:54;99324.56;;;22.79;36.98
69221;BME280;56331;51.992;20.910;2022-12-22T12:53:25;99327.94;;;22.79;36.97
69221;BME280;56331;51.992;20.910;2022-12-22T12:56:01;99312.08;;;22.79;36.89
69221;BME280;56331;51.992;20.910;2022-12-22T13:01:10;99310.25;;;22.77;36.73
69221;BME280;56331;51.992;20.910;2022-12-22T13:03:39;99309.06;;;22.78;36.64
69221;BME280;56331;51.992;20.910;2022-12-22T13:06:09;99299.94;;;22.78;36.58
69221;BME280;56331;51.992;20.910;2022-12-22T13:11:19;99294.93;;;22.74;37.04
69221;BME280;56331;51.992;20.910;2022-12-22T13:13:47;99294.34;;;22.74;37.41
69221;BME280;56331;51.992;20.910;2022-12-22T13:18:48;99295.13;;;22.75;37.34
69221;BME280;56331;51.992;20.910;2022-12-22T13:21:21;99294.54;;;22.75;37.28
69221;BME280;56331;51.992;20.910;2022-12-22T13:26:32;99284.83;;;22.75;37.21
69221;BME280;56331;51.992;20.910;2022-12-22T13:31:40;99291.56;;;22.74;37.45
69221;BME280;56331;51.992;20.910;2022-12-22T13:34:35;99291.56;;;22.74;37.45
69221;BME280;56331;51.992;20.910;2022-12-22T13:37:21;99298.70;;;22.75;37.35
69221;BME280;56331;51.992;20.910;2022-12-22T13:40:12;99299.89;;;22.74;37.25
69221;BME280;56331;51.992;20.910;2022-12-22T13:42:47;99302.88;;;22.75;37.34
69221;BME280;56331;51.992;20.910;2022-12-22T13:47:53;99294.54;;;22.75;37.84
69221;BME280;56331;51.992;20.910;2022-12-22T13:50:27;99287.60;;;22.75;37.91
69221;BME280;56331;51.992;20.910;2022-12-22T13:52:55;99285.42;;;22.75;37.88
69221;BME280;56331;51.992;20.910;2022-12-22T13:55:25;99283.67;;;22.76;37.95
69221;BME280;56331;51.992;20.910;2022-12-22T13:57:52;99284.23;;;22.76;38.20
69221;BME280;56331;51.992;20.910;2022-12-22T14:00:22;99274.11;;;22.74;38.52
69221;BME280;56331;51.992;20.910;2022-12-22T14:02:49;99272.33;;;22.75;38.71
69221;BME280;56331;51.992;20.910;2022-12-22T14:05:17;99274.95;;;22.78;38.78
69221;BME280;56331;51.992;20.910;2022-12-22T14:08:06;99272.97;;;22.78;38.81
69221;BME280;56331;51.992;20.910;2022-12-22T14:10:38;99267.41;;;22.78;38.84
69221;BME280;56331;51.992;20.910;2022-12-22T14:13:11;99257.34;;;22.80;38.69
69221;BME280;56331;51.992;20.910;2022-12-22T14:15:38;99253.77;;;22.79;38.58
69221;BME280;56331;51.992;20.910;2022-12-22T14:18:05;99248.41;;;22.80;38.42
69221;BME280;56331;51.992;20.910;2022-12-22T14:20:36;99244.05;;;22.79;38.29
69221;BME280;56331;51.992;20.910;2022-12-22T14:25:45;99235.12;;;22.80;38.03
69221;BME280;56331;51.992;20.910;2022-12-22T14:28:26;99237.70;;;22.79;38.28
69221;BME280;56331;51.992;20.910;2022-12-22T14:30:56;99240.47;;;22.79;38.70
69221;BME280;56331;51.992;20.910;2022-12-22T14:33:27;99237.47;;;22.78;38.68
69221;BME280;56331;51.992;20.910;2022-12-22T14:38:40;99222.20;;;22.78;38.34
69221;BME280;56331;51.992;20.910;2022-12-22T14:41:37;99222.59;;;22.76;37.99
69221;BME280;56331;51.992;20.910;2022-12-22T14:44:25;99217.83;;;22.77;37.80
69221;BME280;56331;51.992;20.910;2022-12-22T14:47:14;99215.05;;;22.77;37.90
69221;BME280;56331;51.992;20.910;2022-12-22T14:49:56;99213.66;;;22.77;38.12
69221;BME280;56331;51.992;20.910;2022-12-22T14:52:35;99213.07;;;22.77;37.98
69221;BME280;56331;51.992;20.910;2022-12-22T14:55:06;99209.70;;;22.78;37.86
69221;BME280;56331;51.992;20.910;2022-12-22T14:57:38;99214.46;;;22.77;37.80
69221;BME280;56331;51.992;20.910;2022-12-22T15:02:39;99216.28;;;22.79;37.81
69221;BME280;56331;51.992;20.910;2022-12-22T15:05:14;99216.48;;;22.80;37.78
69221;BME280;56331;51.992;20.910;2022-12-22T15:07:46;99212.91;;;22.80;37.75
69221;BME280;56331;51.992;20.910;2022-12-22T15:10:14;99197.05;;;22.80;38.13
69221;BME280;56331;51.992;20.910;2022-12-22T15:12:41;99208.16;;;22.80;38.28
69221;BME280;56331;51.992;20.910;2022-12-22T15:15:17;99208.95;;;22.81;38.46
69221;BME280;56331;51.992;20.910;2022-12-22T15:17:46;99206.41;;;22.82;38.68
69221;BME280;56331;51.992;20.910;2022-12-22T15:20:17;99203.83;;;22.83;38.82
69221;BME280;56331;51.992;20.910;2022-12-22T15:22:44;99198.87;;;22.82;38.96